Hilton Head Island, South Carolina
Current Conditions -  °F | °C
As of 9:55 PM on Wednesday 26 Nov 2014 (Local Time) from KHXD Reporting Station
Clear Clear  
Wind Chill: 42°   Ceiling: Unl
Heat Index: 45°   Visibility: 10mi
Dew Point: 45°   Wind: 5mph
Humidity: 100%   Direction: 220°SW
Pressure: 30.15"   Gusts: NA
Location:  32.15°N, 80.76°W
Report Text: KHXD 270255Z AUTO 22004KT 10SM CLR 07/07 A3015 RMK AO2 P0000
Loading
Personal Weather Stations






























Interactive Weather Map New forecast layout! Learn more

10-Day Weather Forecast

Advertisements
Track Severe Weather on mobile